Time;durP1;ratioP1;P1;durP2;ratioP2;P2;SDS_P1;SDS_P2;PMS_P1;PMS_P2;Temp;Humidity;BMP_temperature;BMP_pressure;BME280_temperature;BME280_humidity;BME280_pressure;Samples;Min_cycle;Max_cycle;Signal;HPM_P1;HPM_P2
2023/09/26 00:01:05;;;;;;;6.53;4.05;;;;;;;;;;4896375;29;20116;-77
2023/09/26 00:03:31;;;;;;;6.10;4.20;;;;;;;;;;4881960;29;20458;-77
2023/09/26 00:05:57;;;;;;;7.25;4.47;;;;;;;;;;4888438;29;20117;-77
2023/09/26 00:08:23;;;;;;;6.55;4.18;;;;;;;;;;4894444;29;20036;-78
2023/09/26 00:10:49;;;;;;;7.75;4.63;;;;;;;;;;4895986;29;20037;-78
2023/09/26 00:13:16;;;;;;;6.78;4.15;;;;;;;;;;4896168;29;20485;-77
2023/09/26 00:15:42;;;;;;;6.72;4.72;;;;;;;;;;4893585;29;20033;-77
2023/09/26 00:18:08;;;;;;;7.97;4.22;;;;;;;;;;4890810;29;20047;-77
2023/09/26 00:20:38;;;;;;;10.43;4.93;;;;;;;;;;4896018;29;20478;-78
2023/09/26 00:23:04;;;;;;;9.43;4.95;;;;;;;;;;4879357;29;20044;-77
2023/09/26 00:25:30;;;;;;;6.97;4.20;;;;;;;;;;4877668;29;20033;-80
2023/09/26 00:27:57;;;;;;;7.78;4.75;;;;;;;;;;4867065;29;20416;-78
2023/09/26 00:30:26;;;;;;;7.03;4.25;;;;;;;;;;4891003;29;20402;-78
2023/09/26 00:32:52;;;;;;;6.22;4.68;;;;;;;;;;4895909;29;20036;-77
2023/09/26 00:35:19;;;;;;;10.00;5.43;;;;;;;;;;4889947;29;20033;-76
2023/09/26 00:37:48;;;;;;;9.18;5.28;;;;;;;;;;4895435;29;20372;-78
2023/09/26 00:40:15;;;;;;;7.88;4.88;;;;;;;;;;4894084;29;20063;-77
2023/09/26 00:42:42;;;;;;;34.13;20.50;;;;;;;;;;4877127;29;20029;-76
2023/09/26 00:45:08;;;;;;;11.05;6.53;;;;;;;;;;4876905;29;20037;-76
2023/09/26 00:47:35;;;;;;;7.25;5.20;;;;;;;;;;4890803;29;20554;-74
2023/09/26 00:50:10;;;;;;;9.05;7.15;;;;;;;;;;4883544;29;20103;-77
2023/09/26 00:52:37;;;;;;;8.77;6.50;;;;;;;;;;4892287;29;20465;-75
2023/09/26 00:55:04;;;;;;;12.48;6.80;;;;;;;;;;4885552;29;20140;-74
2023/09/26 00:57:33;;;;;;;10.35;6.22;;;;;;;;;;4893524;29;20076;-75
2023/09/26 01:00:01;;;;;;;8.05;5.75;;;;;;;;;;4897128;29;20040;-75
2023/09/26 01:02:27;;;;;;;8.48;5.50;;;;;;;;;;4892206;29;20044;-78
2023/09/26 01:04:53;;;;;;;9.27;7.00;;;;;;;;;;4886140;29;20509;-83
2023/09/26 01:07:19;;;;;;;10.82;5.47;;;;;;;;;;4892938;29;20048;-79
2023/09/26 01:09:45;;;;;;;9.25;6.60;;;;;;;;;;4890106;29;20440;-86
2023/09/26 01:12:12;;;;;;;10.13;7.22;;;;;;;;;;4886702;29;20037;-85
2023/09/26 01:14:38;;;;;;;13.43;10.60;;;;;;;;;;4890097;29;20048;-77
2023/09/26 01:17:04;;;;;;;10.60;6.25;;;;;;;;;;4885618;29;20029;-75
2023/09/26 01:19:30;;;;;;;10.18;6.50;;;;;;;;;;4883612;29;20048;-76
2023/09/26 01:21:56;;;;;;;7.13;6.30;;;;;;;;;;4895017;29;20036;-75
2023/09/26 01:24:22;;;;;;;10.73;6.05;;;;;;;;;;4889177;29;20029;-75
2023/09/26 01:26:48;;;;;;;8.90;6.57;;;;;;;;;;4884767;29;20025;-75
2023/09/26 01:29:14;;;;;;;10.70;6.75;;;;;;;;;;4897371;29;20084;-75
2023/09/26 01:31:40;;;;;;;10.10;6.18;;;;;;;;;;4896746;29;20037;-75
2023/09/26 01:34:06;;;;;;;12.90;6.88;;;;;;;;;;4895831;29;20375;-75
2023/09/26 01:36:32;;;;;;;7.40;6.20;;;;;;;;;;4897286;29;20108;-75
2023/09/26 01:38:58;;;;;;;12.50;6.00;;;;;;;;;;4884293;29;20406;-75
2023/09/26 01:41:24;;;;;;;16.13;11.07;;;;;;;;;;4898668;29;20053;-75
2023/09/26 01:43:51;;;;;;;11.70;7.47;;;;;;;;;;4897654;29;20115;-79
2023/09/26 01:46:19;;;;;;;9.32;6.72;;;;;;;;;;4897922;29;20490;-78
2023/09/26 01:48:45;;;;;;;8.65;5.90;;;;;;;;;;4898062;29;20118;-80
2023/09/26 01:51:11;;;;;;;9.20;6.53;;;;;;;;;;4898614;29;20064;-75
2023/09/26 01:53:37;;;;;;;8.32;5.90;;;;;;;;;;4898668;29;20542;-75
2023/09/26 01:56:03;;;;;;;7.30;5.93;;;;;;;;;;4898614;29;20108;-75
2023/09/26 01:58:29;;;;;;;7.28;6.25;;;;;;;;;;4895592;29;20370;-75
2023/09/26 02:00:55;;;;;;;8.43;5.72;;;;;;;;;;4880870;29;20051;-76
2023/09/26 02:03:21;;;;;;;11.20;5.95;;;;;;;;;;4890682;29;20064;-75
2023/09/26 02:05:48;;;;;;;9.25;5.55;;;;;;;;;;4898600;29;20032;-75
2023/09/26 02:08:17;;;;;;;9.82;6.13;;;;;;;;;;4897445;29;20036;-75
2023/09/26 02:10:44;;;;;;;9.32;6.07;;;;;;;;;;4881566;29;20040;-76
2023/09/26 02:13:10;;;;;;;10.65;6.82;;;;;;;;;;4898024;29;20406;-75
2023/09/26 02:15:36;;;;;;;9.68;6.15;;;;;;;;;;4891811;29;20037;-75
2023/09/26 02:18:02;;;;;;;12.63;6.18;;;;;;;;;;4885448;29;20486;-75
2023/09/26 02:20:28;;;;;;;12.00;6.00;;;;;;;;;;4897460;29;20518;-75
2023/09/26 02:22:54;;;;;;;7.07;6.00;;;;;;;;;;4898201;29;20063;-74
2023/09/26 02:25:21;;;;;;;7.20;5.82;;;;;;;;;;4899656;29;20372;-75
2023/09/26 02:27:47;;;;;;;7.93;6.38;;;;;;;;;;4898344;29;20037;-75
2023/09/26 02:30:15;;;;;;;8.15;6.43;;;;;;;;;;4895562;29;20040;-75
2023/09/26 02:32:41;;;;;;;9.93;6.38;;;;;;;;;;4896790;29;20447;-75
2023/09/26 02:35:11;;;;;;;21.73;6.40;;;;;;;;;;4897511;29;20032;-76
2023/09/26 02:37:38;;;;;;;9.55;6.35;;;;;;;;;;4880779;29;20390;-75
2023/09/26 02:40:05;;;;;;;6.57;5.75;;;;;;;;;;4897888;29;20197;-75
2023/09/26 02:42:34;;;;;;;8.35;5.97;;;;;;;;;;4896065;29;20368;-75
2023/09/26 02:45:00;;;;;;;7.68;6.57;;;;;;;;;;4896879;29;20028;-75
2023/09/26 02:47:26;;;;;;;11.73;6.53;;;;;;;;;;4896596;29;20037;-75
2023/09/26 02:49:53;;;;;;;7.90;6.25;;;;;;;;;;4890162;29;20041;-75
2023/09/26 02:52:19;;;;;;;8.07;6.32;;;;;;;;;;4896311;29;20136;-75
2023/09/26 02:54:45;;;;;;;10.57;7.18;;;;;;;;;;4897181;29;20540;-75
2023/09/26 02:57:11;;;;;;;10.45;6.95;;;;;;;;;;4897747;29;20036;-75
2023/09/26 02:59:37;;;;;;;10.02;7.38;;;;;;;;;;4897709;29;20518;-74
2023/09/26 03:02:03;;;;;;;9.25;6.35;;;;;;;;;;4865500;29;20072;-74
2023/09/26 03:04:29;;;;;;;9.35;6.50;;;;;;;;;;4894426;29;20060;-75
2023/09/26 03:06:55;;;;;;;12.55;7.43;;;;;;;;;;4897617;29;20144;-75
2023/09/26 03:09:21;;;;;;;10.00;7.28;;;;;;;;;;4896377;29;20498;-76
2023/09/26 03:11:47;;;;;;;10.82;6.40;;;;;;;;;;4896491;29;20037;-76
2023/09/26 03:14:13;;;;;;;9.55;6.68;;;;;;;;;;4895505;29;20119;-75
2023/09/26 03:16:40;;;;;;;8.85;6.43;;;;;;;;;;4896216;29;20051;-74
2023/09/26 03:19:06;;;;;;;8.80;6.18;;;;;;;;;;4896747;29;20052;-75
2023/09/26 03:21:32;;;;;;;7.88;6.45;;;;;;;;;;4895994;29;20044;-75
2023/09/26 03:23:58;;;;;;;10.18;6.65;;;;;;;;;;4880037;29;20043;-75
2023/09/26 03:26:24;;;;;;;10.63;6.20;;;;;;;;;;4887841;29;20040;-75
2023/09/26 03:28:50;;;;;;;10.02;7.32;;;;;;;;;;4896662;29;20348;-76
2023/09/26 03:31:16;;;;;;;10.32;7.00;;;;;;;;;;4897086;29;20119;-74
2023/09/26 03:33:42;;;;;;;12.68;7.82;;;;;;;;;;4895374;29;20387;-77
2023/09/26 03:36:08;;;;;;;10.55;6.70;;;;;;;;;;4896180;29;20024;-74
2023/09/26 03:38:34;;;;;;;10.43;7.53;;;;;;;;;;4878914;29;20473;-75
2023/09/26 03:41:01;;;;;;;11.30;7.85;;;;;;;;;;4896880;29;20107;-75
2023/09/26 03:43:27;;;;;;;9.20;7.60;;;;;;;;;;4895564;29;20481;-75
2023/09/26 03:46:06;;;;;;;10.20;8.43;;;;;;;;;;4891734;29;20052;-75
2023/09/26 03:48:33;;;;;;;11.63;8.70;;;;;;;;;;4868355;29;20033;-74
2023/09/26 03:51:08;;;;;;;13.05;8.07;;;;;;;;;;4896427;29;20064;-75
2023/09/26 03:53:35;;;;;;;13.25;8.50;;;;;;;;;;4894957;29;20036;-74
2023/09/26 03:56:01;;;;;;;10.57;8.82;;;;;;;;;;4896726;29;20029;-75
2023/09/26 03:58:27;;;;;;;8.57;7.40;;;;;;;;;;4885919;29;20036;-75
2023/09/26 04:00:53;;;;;;;9.25;7.72;;;;;;;;;;4872304;29;20096;-75
2023/09/26 04:03:20;;;;;;;11.88;9.45;;;;;;;;;;4893105;29;20055;-76
2023/09/26 04:05:48;;;;;;;13.05;7.60;;;;;;;;;;4891752;29;20112;-76
2023/09/26 04:08:17;;;;;;;11.95;9.27;;;;;;;;;;4892058;29;20028;-76
2023/09/26 04:10:43;;;;;;;10.35;7.57;;;;;;;;;;4892957;29;20048;-76
2023/09/26 04:13:09;;;;;;;12.27;7.72;;;;;;;;;;4867830;29;20049;-80
2023/09/26 04:15:38;;;;;;;12.40;8.30;;;;;;;;;;4874911;29;20439;-78
2023/09/26 04:18:06;;;;;;;14.93;9.77;;;;;;;;;;4892737;29;20562;-76
2023/09/26 04:20:35;;;;;;;12.25;8.82;;;;;;;;;;4894663;29;20394;-76
2023/09/26 04:23:01;;;;;;;9.85;8.93;;;;;;;;;;4873968;29;20031;-78
2023/09/26 04:25:29;;;;;;;15.82;10.05;;;;;;;;;;4889619;29;20029;-75
2023/09/26 04:27:55;;;;;;;15.88;11.30;;;;;;;;;;4892688;29;20032;-75
2023/09/26 04:30:21;;;;;;;10.60;8.52;;;;;;;;;;4893074;29;20380;-74
2023/09/26 04:32:47;;;;;;;11.02;8.27;;;;;;;;;;4891377;29;20064;-75
2023/09/26 04:35:13;;;;;;;11.95;8.55;;;;;;;;;;4893443;29;20103;-77
2023/09/26 04:37:39;;;;;;;14.77;11.73;;;;;;;;;;4890896;29;20473;-78
2023/09/26 04:40:11;;;;;;;19.67;14.00;;;;;;;;;;4889598;29;20088;-78
2023/09/26 04:42:48;;;;;;;14.93;9.35;;;;;;;;;;4879838;29;20620;-74
2023/09/26 04:45:14;;;;;;;12.05;9.35;;;;;;;;;;4892431;29;20517;-78
2023/09/26 04:47:40;;;;;;;12.15;9.20;;;;;;;;;;4870608;29;20075;-78
2023/09/26 04:50:07;;;;;;;11.95;8.85;;;;;;;;;;4889561;29;20036;-79
2023/09/26 04:52:33;;;;;;;13.70;9.25;;;;;;;;;;4858746;29;20055;-78
2023/09/26 04:54:59;;;;;;;15.05;9.30;;;;;;;;;;4891835;29;20040;-77
2023/09/26 04:57:25;;;;;;;12.40;8.57;;;;;;;;;;4893794;29;20120;-77
2023/09/26 04:59:51;;;;;;;132.98;91.68;;;;;;;;;;4892733;29;20033;-75
2023/09/26 05:02:18;;;;;;;22.77;14.88;;;;;;;;;;4888998;29;20383;-75
2023/09/26 05:04:45;;;;;;;47.03;29.50;;;;;;;;;;4895941;29;20119;-77
2023/09/26 05:07:12;;;;;;;16.90;12.50;;;;;;;;;;4892842;29;20048;-76
2023/09/26 05:09:38;;;;;;;19.85;12.32;;;;;;;;;;4866285;29;20039;-81
2023/09/26 05:12:04;;;;;;;15.45;10.38;;;;;;;;;;4891417;29;20045;-79
2023/09/26 05:14:30;;;;;;;15.38;11.55;;;;;;;;;;4892107;29;20092;-79
2023/09/26 05:16:56;;;;;;;12.68;10.38;;;;;;;;;;4889947;29;20048;-76
2023/09/26 05:19:22;;;;;;;10.50;8.75;;;;;;;;;;4892467;29;20332;-77
2023/09/26 05:21:48;;;;;;;13.40;10.15;;;;;;;;;;4886665;29;20044;-75
2023/09/26 05:24:14;;;;;;;11.07;8.73;;;;;;;;;;4887906;29;20035;-73
2023/09/26 05:26:40;;;;;;;13.48;9.00;;;;;;;;;;4889589;29;20044;-77
2023/09/26 05:29:06;;;;;;;11.18;9.38;;;;;;;;;;4891618;29;20032;-75
2023/09/26 05:31:32;;;;;;;19.25;9.93;;;;;;;;;;4870635;29;20107;-74
2023/09/26 05:33:58;;;;;;;20.40;10.90;;;;;;;;;;4890265;29;20119;-79
2023/09/26 05:36:25;;;;;;;16.58;10.25;;;;;;;;;;4891858;29;20033;-74
2023/09/26 05:38:51;;;;;;;14.75;10.00;;;;;;;;;;4877601;29;20113;-74
2023/09/26 05:41:17;;;;;;;22.33;10.02;;;;;;;;;;4865745;29;20436;-78
2023/09/26 05:43:43;;;;;;;65.07;38.10;;;;;;;;;;4888326;29;20475;-77
2023/09/26 05:46:09;;;;;;;41.78;20.45;;;;;;;;;;4886233;29;20040;-76
2023/09/26 05:48:36;;;;;;;16.15;10.30;;;;;;;;;;4861338;29;20435;-77
2023/09/26 05:51:03;;;;;;;19.55;10.45;;;;;;;;;;4875496;29;20040;-77
2023/09/26 05:53:29;;;;;;;30.55;11.57;;;;;;;;;;4893085;29;20032;-78
2023/09/26 05:55:56;;;;;;;13.77;9.80;;;;;;;;;;4875795;29;20024;-84
2023/09/26 05:58:22;;;;;;;14.65;10.05;;;;;;;;;;4885794;29;20041;-82
2023/09/26 06:00:48;;;;;;;11.68;9.80;;;;;;;;;;4878944;29;20088;-84
2023/09/26 06:03:14;;;;;;;17.60;10.25;;;;;;;;;;4891274;29;20116;-82
2023/09/26 06:05:41;;;;;;;31.02;11.93;;;;;;;;;;4886724;29;20036;-80
2023/09/26 06:08:07;;;;;;;14.00;10.27;;;;;;;;;;4889915;29;20028;-80
2023/09/26 06:10:33;;;;;;;15.82;10.23;;;;;;;;;;4892786;29;20051;-79
2023/09/26 06:12:59;;;;;;;13.23;10.77;;;;;;;;;;4874989;29;20150;-79
2023/09/26 06:15:25;;;;;;;14.35;11.20;;;;;;;;;;4894332;29;20085;-78
2023/09/26 06:18:02;;;;;;;10.60;9.50;;;;;;;;;;4884125;29;20041;-76
2023/09/26 06:20:28;;;;;;;14.35;10.00;;;;;;;;;;4893774;29;20064;-77
2023/09/26 06:22:55;;;;;;;14.07;9.95;;;;;;;;;;4897341;29;20036;-76
2023/09/26 06:25:23;;;;;;;11.63;10.00;;;;;;;;;;4897122;29;20204;-77
2023/09/26 06:27:50;;;;;;;14.43;9.55;;;;;;;;;;4897992;29;20116;-78
2023/09/26 06:30:16;;;;;;;13.48;10.02;;;;;;;;;;4879518;29;20119;-77
2023/09/26 06:32:42;;;;;;;13.68;9.73;;;;;;;;;;4887356;29;20059;-78
2023/09/26 06:35:08;;;;;;;14.57;9.95;;;;;;;;;;4892973;29;20033;-79
2023/09/26 06:37:34;;;;;;;10.93;9.48;;;;;;;;;;4892374;29;20028;-82
2023/09/26 06:40:04;;;;;;;12.20;9.65;;;;;;;;;;4888370;29;20061;-76
2023/09/26 06:42:30;;;;;;;11.40;8.88;;;;;;;;;;4894354;29;20607;-75
2023/09/26 06:44:57;;;;;;;13.38;9.90;;;;;;;;;;4895047;29;20035;-76
2023/09/26 06:47:24;;;;;;;13.40;9.50;;;;;;;;;;4890302;29;20517;-79
2023/09/26 06:49:50;;;;;;;32.72;22.35;;;;;;;;;;4893109;29;20436;-77
2023/09/26 06:52:16;;;;;;;17.23;13.40;;;;;;;;;;4891088;29;20033;-76
2023/09/26 06:54:42;;;;;;;16.05;9.82;;;;;;;;;;4894681;29;20119;-79
2023/09/26 06:57:09;;;;;;;14.93;9.55;;;;;;;;;;4893783;29;20032;-79
2023/09/26 06:59:36;;;;;;;11.13;8.85;;;;;;;;;;4878776;29;20486;-79
2023/09/26 07:02:02;;;;;;;13.23;9.10;;;;;;;;;;4888156;29;20037;-78
2023/09/26 07:04:28;;;;;;;18.05;10.05;;;;;;;;;;4872038;29;20044;-81
2023/09/26 07:06:54;;;;;;;12.32;8.55;;;;;;;;;;4891593;29;20040;-80
2023/09/26 07:09:20;;;;;;;9.38;7.88;;;;;;;;;;4890268;29;20154;-78
2023/09/26 07:11:49;;;;;;;10.43;8.48;;;;;;;;;;4896315;29;20096;-75
2023/09/26 07:14:16;;;;;;;13.05;9.90;;;;;;;;;;4884408;29;20052;-75
2023/09/26 07:16:43;;;;;;;11.30;8.68;;;;;;;;;;4884066;29;20103;-76
2023/09/26 07:19:09;;;;;;;20.17;13.70;;;;;;;;;;4892231;29;20037;-79
2023/09/26 07:21:35;;;;;;;19.02;10.80;;;;;;;;;;4873315;29;20101;-74
2023/09/26 07:24:02;;;;;;;22.40;15.77;;;;;;;;;;4895767;29;20032;-72
2023/09/26 07:26:29;;;;;;;14.68;9.60;;;;;;;;;;4893568;29;20029;-74
2023/09/26 07:28:55;;;;;;;13.18;9.30;;;;;;;;;;4896300;29;20063;-74
2023/09/26 07:31:21;;;;;;;15.15;8.48;;;;;;;;;;4885903;29;20471;-77
2023/09/26 07:33:50;;;;;;;13.48;8.90;;;;;;;;;;4884826;29;20488;-80
2023/09/26 07:36:17;;;;;;;12.48;9.73;;;;;;;;;;4889323;29;20036;-82
2023/09/26 07:38:44;;;;;;;14.98;9.07;;;;;;;;;;4891193;29;20037;-82
2023/09/26 07:41:10;;;;;;;13.55;9.73;;;;;;;;;;4894338;29;20053;-76
2023/09/26 07:43:36;;;;;;;30.73;21.13;;;;;;;;;;4896411;29;20096;-81
2023/09/26 07:46:05;;;;;;;14.32;10.25;;;;;;;;;;4894298;29;20084;-79
2023/09/26 07:48:32;;;;;;;16.27;9.18;;;;;;;;;;4886358;29;20036;-81
2023/09/26 07:50:58;;;;;;;13.50;8.82;;;;;;;;;;4886224;29;20044;-81
2023/09/26 07:53:24;;;;;;;19.05;9.82;;;;;;;;;;4889242;29;20049;-81
2023/09/26 07:55:50;;;;;;;11.30;8.45;;;;;;;;;;4890474;29;20041;-76
2023/09/26 07:58:16;;;;;;;13.30;8.60;;;;;;;;;;4884847;29;20080;-77
2023/09/26 08:00:43;;;;;;;12.40;8.65;;;;;;;;;;4889509;29;20049;-77
2023/09/26 08:03:09;;;;;;;13.35;8.27;;;;;;;;;;4889761;29;20068;-77
2023/09/26 08:05:36;;;;;;;10.80;8.23;;;;;;;;;;4870991;29;20040;-79
2023/09/26 08:08:04;;;;;;;11.52;7.90;;;;;;;;;;4883925;29;20391;-79
2023/09/26 08:10:31;;;;;;;12.60;7.40;;;;;;;;;;4891553;29;20036;-82
2023/09/26 08:12:57;;;;;;;10.77;8.27;;;;;;;;;;4892655;29;20117;-80
2023/09/26 08:15:24;;;;;;;12.02;7.80;;;;;;;;;;4884528;29;20137;-79
2023/09/26 08:17:50;;;;;;;11.40;8.23;;;;;;;;;;4890614;29;20033;-80
2023/09/26 08:20:16;;;;;;;15.20;8.10;;;;;;;;;;4884359;29;20084;-78
2023/09/26 08:22:43;;;;;;;13.00;8.70;;;;;;;;;;4885846;29;20041;-80
2023/09/26 08:25:09;;;;;;;18.60;9.55;;;;;;;;;;4893492;29;20031;-81
2023/09/26 08:27:37;;;;;;;12.88;8.05;;;;;;;;;;4875261;29;20497;-80
2023/09/26 08:30:03;;;;;;;10.13;7.32;;;;;;;;;;4893307;29;20119;-76
2023/09/26 08:32:29;;;;;;;11.50;8.07;;;;;;;;;;4886361;29;20048;-76
2023/09/26 08:34:57;;;;;;;12.38;8.20;;;;;;;;;;4892860;29;20037;-76
2023/09/26 08:37:23;;;;;;;11.98;7.70;;;;;;;;;;4877796;29;20211;-76
2023/09/26 08:39:51;;;;;;;10.32;8.75;;;;;;;;;;4893754;29;20025;-77
2023/09/26 08:42:25;;;;;;;9.55;8.02;;;;;;;;;;4874505;29;20029;-77
2023/09/26 08:44:51;;;;;;;11.40;7.50;;;;;;;;;;4869255;29;20074;-76
2023/09/26 08:47:17;;;;;;;10.73;8.23;;;;;;;;;;4888354;29;20070;-75
2023/09/26 08:49:43;;;;;;;8.48;7.20;;;;;;;;;;4886018;29;20036;-76
2023/09/26 08:52:09;;;;;;;17.65;7.88;;;;;;;;;;4866831;29;20461;-75
2023/09/26 08:54:35;;;;;;;8.98;6.90;;;;;;;;;;4884630;29;20045;-72
2023/09/26 08:57:02;;;;;;;12.98;8.63;;;;;;;;;;4889552;29;20368;-75
2023/09/26 08:59:31;;;;;;;11.63;8.05;;;;;;;;;;4887278;29;20037;-75
2023/09/26 09:01:57;;;;;;;10.38;6.95;;;;;;;;;;4885213;29;20037;-73
2023/09/26 09:04:24;;;;;;;29.25;18.92;;;;;;;;;;4890358;29;20042;-75
2023/09/26 09:07:00;;;;;;;8.35;6.68;;;;;;;;;;4892022;29;20116;-71
2023/09/26 09:09:26;;;;;;;11.52;6.78;;;;;;;;;;4895949;29;20035;-72
2023/09/26 09:11:54;;;;;;;10.02;6.88;;;;;;;;;;4894757;29;20049;-72
2023/09/26 09:14:33;;;;;;;11.68;6.18;;;;;;;;;;4882631;29;20041;-72
2023/09/26 09:16:59;;;;;;;7.80;6.18;;;;;;;;;;4894291;29;20060;-72
2023/09/26 09:19:47;;;;;;;11.55;5.93;;;;;;;;;;4891729;29;20033;-73
2023/09/26 09:22:20;;;;;;;10.52;5.82;;;;;;;;;;4878073;29;20511;-72
2023/09/26 09:24:53;;;;;;;12.18;6.40;;;;;;;;;;4887251;29;20033;-71
2023/09/26 09:27:34;;;;;;;8.13;5.07;;;;;;;;;;4882658;29;20096;-72
2023/09/26 09:30:04;;;;;;;9.85;5.95;;;;;;;;;;4870344;29;20041;-72
2023/09/26 09:32:30;;;;;;;10.07;6.28;;;;;;;;;;4892842;29;20028;-72
2023/09/26 09:34:56;;;;;;;11.40;5.80;;;;;;;;;;4892875;29;20076;-72
2023/09/26 09:37:22;;;;;;;12.23;5.68;;;;;;;;;;4893520;29;20181;-72
2023/09/26 09:39:48;;;;;;;9.82;5.70;;;;;;;;;;4888429;29;20041;-72
2023/09/26 09:42:14;;;;;;;13.55;5.72;;;;;;;;;;4895483;29;20044;-72
2023/09/26 09:44:42;;;;;;;8.23;5.90;;;;;;;;;;4895614;29;20123;-72
2023/09/26 09:47:11;;;;;;;9.13;5.57;;;;;;;;;;4887509;29;20055;-72
2023/09/26 09:49:40;;;;;;;9.32;5.57;;;;;;;;;;4896377;29;20044;-72
2023/09/26 09:52:09;;;;;;;13.70;6.13;;;;;;;;;;4895879;29;20039;-71
2023/09/26 09:54:37;;;;;;;10.65;5.32;;;;;;;;;;4876115;29;20045;-71
2023/09/26 09:57:11;;;;;;;8.63;5.50;;;21.40;99.90;;;;;;4888726;29;20463;-72
2023/09/26 09:59:37;;;;;;;9.23;4.82;;;;;;;;;;4895858;29;20084;-71
2023/09/26 10:02:04;;;;;;;6.97;5.00;;;;;;;;;;4870964;29;20548;-72
2023/09/26 10:04:34;;;;;;;15.85;7.82;;;;;;;;;;4890428;29;20395;-73
2023/09/26 10:07:00;;;;;;;19.90;13.20;;;;;;;;;;4889048;29;20081;-74
2023/09/26 10:09:27;;;;;;;8.75;5.40;;;;;;;;;;4884447;29;20516;-72
2023/09/26 10:11:53;;;;;;;5.72;4.22;;;;;;;;;;4895680;29;20040;-74
2023/09/26 10:14:23;;;;;;;7.82;4.70;;;;;;;;;;4876661;29;20067;-73
2023/09/26 10:16:49;;;;;;;10.98;4.43;;;;;;;;;;4873174;29;20475;-72
2023/09/26 10:19:18;;;;;;;11.93;4.63;;;;;;;;;;4896510;29;20064;-72
2023/09/26 10:21:44;;;;;;;7.35;4.07;;;;;;;;;;4878193;29;20081;-73
2023/09/26 10:24:16;;;;;;;9.00;4.10;;;;;;;;;;4896132;29;20032;-72
2023/09/26 10:26:48;;;;;;;8.23;4.10;;;;;;;;;;4894291;29;20090;-73
2023/09/26 10:29:14;;;;;;;6.45;3.78;;;;;;;;;;4882984;29;20568;-73
2023/09/26 10:31:53;;;;;;;8.80;3.47;;;;;;;;;;4890523;29;20048;-72
2023/09/26 10:34:31;;;;;;;6.43;3.90;;;;;;;;;;4885922;29;20045;-72
2023/09/26 10:36:59;;;;;;;10.60;3.95;;;;;;;;;;4895457;29;20047;-73
2023/09/26 10:39:34;;;;;;;6.05;4.07;;;;;;;;;;4870383;29;20237;-79
2023/09/26 10:42:01;;;;;;;6.07;3.60;;;;;;;;;;4888837;29;20116;-77
2023/09/26 10:44:27;;;;;;;13.13;4.55;;;;;;;;;;4893003;29;20146;-79
2023/09/26 10:46:53;;;;;;;7.75;4.00;;;;;;;;;;4893464;29;20441;-79
2023/09/26 10:49:19;;;;;;;10.32;3.70;;;;;;;;;;4895942;29;20041;-80
2023/09/26 10:51:45;;;;;;;11.10;4.10;;;;;;;;;;4875103;29;20033;-78
2023/09/26 10:54:11;;;;;;;7.88;3.63;;;;;;;;;;4890302;29;20080;-77
2023/09/26 10:56:38;;;;;;;10.45;3.80;;;;;;;;;;4885652;29;20092;-77
2023/09/26 10:59:04;;;;;;;8.73;4.10;;;;;;;;;;4893504;29;20025;-78
2023/09/26 11:01:37;;;;;;;9.20;3.67;;;;;;;;;;4887468;29;20047;-77
2023/09/26 11:04:04;;;;;;;6.18;3.78;;;;;;;;;;4889653;29;20080;-79
2023/09/26 11:06:30;;;;;;;9.98;3.85;;;;;;;;;;4894181;29;20719;-78
2023/09/26 11:08:58;;;;;;;5.55;3.45;;;;;;;;;;4890427;29;20060;-79
2023/09/26 11:11:24;;;;;;;10.35;3.97;;;;;;;;;;4895001;29;20124;-78
2023/09/26 11:13:50;;;;;;;7.68;3.80;;;;;;;;;;4898944;29;20044;-78
2023/09/26 11:16:18;;;;;;;6.35;3.97;;;;;;;;;;4895631;29;20033;-78
2023/09/26 11:18:44;;;;;;;6.82;4.10;;;;;;;;;;4892877;29;20124;-77
2023/09/26 11:21:10;;;;;;;7.15;3.50;;;;;;;;;;4894183;29;20045;-77
2023/09/26 11:23:38;;;;;;;11.23;4.10;;;;;;;;;;4900938;29;20037;-79
2023/09/26 11:26:06;;;;;;;7.47;3.65;;;;;;;;;;4894793;29;20033;-74
2023/09/26 11:28:32;;;;;;;5.32;4.22;;;;;;;;;;4886894;29;20112;-74
2023/09/26 11:30:59;;;;;;;5.75;3.70;;;;;;;;;;4885428;29;20479;-75
2023/09/26 11:33:25;;;;;;;9.10;4.05;;;;;;;;;;4892815;29;20085;-72
2023/09/26 11:35:51;;;;;;;6.80;4.30;;;;;;;;;;4860160;29;20039;-73
2023/09/26 11:38:17;;;;;;;6.43;3.47;;;;;;;;;;4898981;29;20048;-73
2023/09/26 11:40:45;;;;;;;11.30;4.10;;;;;;;;;;4893209;29;20057;-73
2023/09/26 11:43:11;;;;;;;8.13;4.03;;;;;;;;;;4892458;29;20037;-72
2023/09/26 11:45:37;;;;;;;7.80;3.83;;;;;;;;;;4893815;29;20443;-76
2023/09/26 11:48:03;;;;;;;12.32;5.38;;;;;;;;;;4892491;29;20028;-73
2023/09/26 11:50:29;;;;;;;8.05;5.35;;;;;;;;;;4866857;29;21647;-74
2023/09/26 11:52:57;;;;;;;33.03;23.20;;;;;;;;;;4891891;29;20045;-72
2023/09/26 11:55:24;;;;;;;19.13;8.05;;;;;;;;;;4893589;29;20060;-71
2023/09/26 11:57:51;;;;;;;15.90;6.07;;;;;;;;;;4891829;29;20037;-72
2023/09/26 12:00:18;;;;;;;7.80;5.03;;;;;;;;;;4892635;29;20184;-71
2023/09/26 12:02:46;;;;;;;9.93;4.80;;;;;;;;;;4889330;29;20076;-74
2023/09/26 12:05:14;;;;;;;9.25;4.47;;;;;;;;;;4885990;29;20040;-81
2023/09/26 12:07:41;;;;;;;7.40;4.45;;;;;;;;;;4886760;29;20055;-81
2023/09/26 12:10:07;;;;;;;7.85;4.28;;;;;;;;;;4891266;29;20077;-83
2023/09/26 12:12:33;;;;;;;6.38;4.30;;;;;;;;;;4869774;29;20087;-82
2023/09/26 12:15:20;;;;;;;5.15;3.40;;;;;;;;;;4895153;29;20036;-82
2023/09/26 12:17:46;;;;;;;7.40;4.13;;;;;;;;;;4882521;29;20408;-82
2023/09/26 12:20:13;;;;;;;7.65;3.72;;;;;;;;;;4895873;29;20043;-82
2023/09/26 12:22:39;;;;;;;8.00;4.50;;;;;;;;;;4879826;29;20065;-84
2023/09/26 12:25:05;;;;;;;8.32;3.90;;;;;;;;;;4895578;29;20067;-82
2023/09/26 12:27:31;;;;;;;4.20;3.40;;;;;;;;;;4896524;29;20025;-82
2023/09/26 12:29:58;;;;;;;5.32;3.90;;;;;;;;;;4877956;29;20395;-82
2023/09/26 12:32:24;;;;;;;9.63;3.67;;;;;;;;;;4891419;29;20056;-84
2023/09/26 12:34:50;;;;;;;11.80;4.38;;;;;;;;;;4890918;29;20041;-82
2023/09/26 12:37:16;;;;;;;8.20;3.60;;;;;;;;;;4877596;29;20440;-83
2023/09/26 12:39:42;;;;;;;8.85;3.50;;;;;;;;;;4877607;29;20383;-83
2023/09/26 12:42:08;;;;;;;6.97;3.33;;;;;;;;;;4861999;29;20040;-82
2023/09/26 12:44:36;;;;;;;8.18;3.67;;;;;;;;;;4896047;29;20040;-83
2023/09/26 12:47:02;;;;;;;7.65;3.88;;;;;;;;;;4894527;29;20096;-84
2023/09/26 12:49:28;;;;;;;7.05;4.03;;;;;;;;;;4894077;29;20044;-83
2023/09/26 12:51:54;;;;;;;8.25;4.10;;;;;;;;;;4892110;29;20131;-81
2023/09/26 12:54:21;;;;;;;10.63;4.40;;;;;;;;;;4863606;29;20045;-83
2023/09/26 12:56:48;;;;;;;6.30;3.90;;;;;;;;;;4885899;29;20025;-83
2023/09/26 12:59:14;;;;;;;11.13;3.42;;;;;;;;;;4895668;29;20052;-83
2023/09/26 13:01:40;;;;;;;12.35;4.88;;;;;;;;;;4897292;29;20131;-83
2023/09/26 13:04:06;;;;;;;7.55;3.75;;;;;;;;;;4893691;29;20043;-82
2023/09/26 13:06:32;;;;;;;8.18;3.53;;;;;;;;;;4895539;29;20040;-81
2023/09/26 13:08:59;;;;;;;5.85;3.60;;;;;;;;;;4881627;29;20037;-83
2023/09/26 13:11:25;;;;;;;5.95;4.10;;;;;;;;;;4877612;29;20033;-83
2023/09/26 13:13:51;;;;;;;7.78;4.05;;;;;;;;;;4893206;29;20033;-83
2023/09/26 13:16:18;;;;;;;5.88;4.07;;;;;;;;;;4879363;29;20543;-81
2023/09/26 13:18:44;;;;;;;14.00;4.75;;;;;;;;;;4897646;29;20423;-83
2023/09/26 13:21:10;;;;;;;10.15;5.15;;;;;;;;;;4899055;29;20044;-82
2023/09/26 13:23:36;;;;;;;10.15;4.30;;;;;;;;;;4883212;29;20036;-82
2023/09/26 13:26:03;;;;;;;8.18;4.10;;;;;;;;;;4897936;29;20570;-83
2023/09/26 13:28:29;;;;;;;8.30;4.18;;;;;;;;;;4899646;29;20475;-83
2023/09/26 13:30:55;;;;;;;5.45;3.90;;;;;;;;;;4894795;29;20055;-83
2023/09/26 13:33:21;;;;;;;5.72;3.60;;;;;;;;;;4882940;29;20041;-84
2023/09/26 13:35:47;;;;;;;7.05;4.43;;;;;;;;;;4899635;29;20033;-80
2023/09/26 13:38:13;;;;;;;9.32;4.20;;;;;;;;;;4891162;29;20065;-81
2023/09/26 13:40:40;;;;;;;8.50;4.13;;;;;;;;;;4895584;29;20080;-83
2023/09/26 13:43:06;;;;;;;6.40;3.63;;;;;;;;;;4888549;29;20024;-83
2023/09/26 13:45:32;;;;;;;8.98;3.80;;;;;;;;;;4878884;29;20021;-82
2023/09/26 13:47:58;;;;;;;8.43;4.43;;;;;;;;;;4897393;29;20506;-81
2023/09/26 13:50:24;;;;;;;11.00;4.32;;;;;;;;;;4898916;29;20109;-82
2023/09/26 13:52:50;;;;;;;9.65;4.13;;;;;;;;;;4898688;29;20096;-82
2023/09/26 13:55:16;;;;;;;7.20;3.45;;;;;;;;;;4896720;29;20499;-78
2023/09/26 13:57:42;;;;;;;10.65;4.07;;;;;;;;;;4898318;29;20494;-82
2023/09/26 14:00:09;;;;;;;6.45;4.30;;;;;;;;;;4896933;29;20092;-81
2023/09/26 14:02:35;;;;;;;6.85;4.20;;;;;;;;;;4879910;29;20040;-82
2023/09/26 14:05:03;;;;;;;7.40;5.15;;;;;;;;;;4884265;29;20443;-82
2023/09/26 14:07:31;;;;;;;8.07;4.72;;;;;;;;;;4897609;29;20044;-82
2023/09/26 14:09:57;;;;;;;8.50;3.70;;;;;;;;;;4899700;29;20617;-83
2023/09/26 14:12:24;;;;;;;6.90;4.10;;;;;;;;;;4896366;29;20525;-83
2023/09/26 14:14:50;;;;;;;10.45;5.68;;;;;;;;;;4897706;29;20041;-83
2023/09/26 14:17:18;;;;;;;7.63;4.30;;;;;;;;;;4897069;29;20040;-83
2023/09/26 14:19:45;;;;;;;8.85;5.10;;;;;;;;;;4898660;29;20028;-83
2023/09/26 14:22:11;;;;;;;10.18;4.55;;;;;;;;;;4898748;29;20060;-83
2023/09/26 14:24:38;;;;;;;7.25;4.22;;;;;;;;;;4896739;29;20071;-81
2023/09/26 14:27:05;;;;;;;6.18;3.90;;;;;;;;;;4880423;29;20463;-81
2023/09/26 14:29:32;;;;;;;10.73;4.10;;;;;;;;;;4888537;29;20043;-83
2023/09/26 14:31:58;;;;;;;10.02;5.30;;;;;;;;;;4898680;29;20109;-82